Metar Aviation Weather Data EIDW Dublin

11°C Temp
9°C Dewpoint
88% Humidity
Temperature
16 KM/H
10 MPH
9 KTS
200°
South South
West

Wind Speed
Partly Cloudy
Conditions
Pressure 1011.92 (hPa) - 29.88 (in)
Visibility 6.2 (mi) - 10 (km)

Current Conditions
EIDW
Dublin
Metar :EIDW 202030Z 20009KT 9999 FEW018 SCT060 11/09 Q1012 NOSIG
Wed 20th February 21:30 pm

Dublin
  Metar Aviation API Data Provided by https://www.checkwx.com/ PHP scripts by weather34.com ©2019